createdAt,value
2022-10-04T00:02:37.913Z,1042
2022-10-04T00:08:07.339Z,1048
2022-10-04T00:13:37.789Z,1040
2022-10-04T00:19:08.263Z,1040
2022-10-04T00:24:38.859Z,1044
2022-10-04T00:30:08.325Z,1041
2022-10-04T00:35:38.804Z,1047
2022-10-04T00:41:09.295Z,1054
2022-10-04T00:46:39.760Z,1059
2022-10-04T00:52:09.247Z,1057
2022-10-04T00:57:39.756Z,1058
2022-10-04T01:03:09.242Z,1055
2022-10-04T01:08:39.775Z,1058
2022-10-04T01:14:10.292Z,1057
2022-10-04T01:19:39.739Z,1054
2022-10-04T01:25:10.230Z,1063
2022-10-04T01:30:40.732Z,1060
2022-10-04T01:36:10.202Z,1061
2022-10-04T01:41:40.994Z,1067
2022-10-04T01:47:11.182Z,1070
2022-10-04T01:52:40.635Z,1065
2022-10-04T01:58:11.113Z,1065
2022-10-04T02:03:41.708Z,1073
2022-10-04T02:09:11.189Z,1077
2022-10-04T02:14:41.680Z,1076
2022-10-04T02:20:12.189Z,1079
2022-10-04T02:25:41.687Z,1082
2022-10-04T02:31:12.305Z,1084
2022-10-04T02:36:42.686Z,1084
2022-10-04T02:42:12.095Z,1091
2022-10-04T02:47:42.603Z,1095
2022-10-04T02:53:12.106Z,1100
2022-10-04T02:58:42.570Z,1103
2022-10-04T03:04:13.043Z,1105
2022-10-04T03:09:42.552Z,1103
2022-10-04T03:15:13.380Z,1110
2022-10-04T03:20:43.513Z,1113
2022-10-04T03:26:14.132Z,1116
2022-10-04T03:31:44.976Z,1117
2022-10-04T03:37:15.068Z,1127
2022-10-04T03:42:44.718Z,1119
2022-10-04T03:48:14.192Z,1123
2022-10-04T03:53:44.667Z,1126
2022-10-04T03:59:15.183Z,1128
2022-10-04T04:04:44.633Z,1131
2022-10-04T04:10:16.891Z,1125
2022-10-04T04:15:45.655Z,1130
2022-10-04T04:21:15.076Z,1133
2022-10-04T04:26:45.547Z,1128
2022-10-04T04:32:16.052Z,1134
2022-10-04T04:37:45.521Z,1137
2022-10-04T04:43:16.002Z,1144
2022-10-04T04:48:46.504Z,1140
2022-10-04T04:54:16.975Z,1142
2022-10-04T04:59:46.544Z,1141
2022-10-04T05:05:17.016Z,1136
2022-10-04T05:10:47.478Z,1145
2022-10-04T05:16:17.022Z,1150
2022-10-04T05:21:48.130Z,1151
2022-10-04T05:27:17.980Z,1153
2022-10-04T05:32:48.465Z,1183
2022-10-04T05:38:17.951Z,1212
2022-10-04T05:43:48.529Z,1212
2022-10-04T05:49:33.422Z,1256
2022-10-04T05:55:03.913Z,1260
2022-10-04T06:00:34.372Z,1278
2022-10-04T06:06:04.870Z,1278
2022-10-04T06:11:33.616Z,1312
2022-10-04T06:17:02.051Z,1291
2022-10-04T06:22:32.375Z,1272
2022-10-04T06:28:02.960Z,1261
2022-10-04T06:33:32.350Z,1258
2022-10-04T06:39:04.357Z,1235
2022-10-04T06:44:31.482Z,1230
2022-10-04T06:50:00.977Z,1221
2022-10-04T06:55:30.462Z,1293
2022-10-04T07:01:01.010Z,1314
2022-10-04T07:06:31.406Z,1319
2022-10-04T07:11:59.925Z,1350
2022-10-04T07:17:29.471Z,1277
2022-10-04T07:22:57.969Z,1270
2022-10-04T07:28:28.524Z,1243
2022-10-04T07:33:58.925Z,1210
2022-10-04T07:39:28.377Z,1181
2022-10-04T07:44:56.877Z,1193
2022-10-04T07:50:27.379Z,1196
2022-10-04T07:55:57.855Z,1167
2022-10-04T08:01:27.456Z,1180
2022-10-04T08:06:58.008Z,1188
2022-10-04T08:12:27.521Z,1169
2022-10-04T08:17:56.985Z,1157
2022-10-04T08:23:27.502Z,1145
2022-10-04T08:28:56.927Z,1135
2022-10-04T08:34:27.438Z,1113
2022-10-04T08:39:57.917Z,1104
2022-10-04T08:45:27.379Z,1090
2022-10-04T08:50:57.858Z,1069
2022-10-04T08:56:28.378Z,1056
2022-10-04T09:01:58.845Z,1050
2022-10-04T09:07:28.299Z,1028
2022-10-04T09:12:58.851Z,1016
2022-10-04T09:18:29.268Z,1000
2022-10-04T09:23:58.756Z,985
2022-10-04T09:29:29.255Z,972
2022-10-04T09:34:58.769Z,970
2022-10-04T09:40:29.203Z,959
2022-10-04T09:45:59.784Z,953
2022-10-04T09:51:29.166Z,943
2022-10-04T09:56:59.641Z,938
2022-10-04T10:02:30.288Z,923
2022-10-04T10:07:59.612Z,913
2022-10-04T10:13:32.149Z,905
2022-10-04T10:19:00.557Z,899
2022-10-04T10:24:30.019Z,894
2022-10-04T10:30:00.504Z,880
2022-10-04T10:35:30.068Z,874
2022-10-04T10:41:00.461Z,867
2022-10-04T10:46:31.013Z,858
2022-10-04T10:52:00.485Z,845
2022-10-04T10:57:30.897Z,844
2022-10-04T11:03:12.629Z,837
2022-10-04T11:08:31.873Z,831
2022-10-04T11:14:02.491Z,822
2022-10-04T11:19:32.933Z,817
2022-10-04T11:25:03.451Z,811
2022-10-04T11:30:33.924Z,804
2022-10-04T11:36:03.408Z,799
2022-10-04T11:41:33.911Z,790
2022-10-04T11:47:04.415Z,787
2022-10-04T11:52:33.822Z,783
2022-10-04T11:58:07.414Z,780
2022-10-04T12:03:34.851Z,771
2022-10-04T12:09:04.256Z,762
2022-10-04T12:14:34.773Z,757
2022-10-04T12:20:07.601Z,674
2022-10-04T12:25:34.699Z,590
2022-10-04T12:31:05.216Z,553
2022-10-04T12:36:34.687Z,578
2022-10-04T12:42:05.149Z,626
2022-10-04T12:47:34.780Z,640
2022-10-04T12:54:11.282Z,685
2022-10-04T12:59:41.781Z,728
2022-10-04T13:05:11.292Z,770
2022-10-04T13:10:41.753Z,745
2022-10-04T13:21:41.823Z,751
2022-10-04T13:27:12.193Z,756
2022-10-04T13:32:41.791Z,804
2022-10-04T13:38:12.307Z,789
2022-10-04T13:43:42.729Z,786
2022-10-04T13:49:12.253Z,867
2022-10-04T13:54:42.724Z,855
2022-10-04T14:00:13.178Z,876
2022-10-04T14:05:43.673Z,885
2022-10-04T14:11:13.268Z,884
2022-10-04T14:16:43.755Z,876
2022-10-04T14:22:14.146Z,901
2022-10-04T14:27:43.644Z,897
2022-10-04T14:33:14.083Z,864
2022-10-04T14:38:44.581Z,818
2022-10-04T14:44:14.084Z,795
2022-10-04T14:49:44.513Z,764
2022-10-04T14:55:15.009Z,743
2022-10-04T15:00:44.520Z,717
2022-10-04T15:06:14.969Z,693
2022-10-04T15:11:57.555Z,668
2022-10-04T15:17:14.964Z,663
2022-10-04T15:22:45.417Z,662
2022-10-04T15:28:15.949Z,672
2022-10-04T15:33:45.487Z,653
2022-10-04T15:39:15.870Z,657
2022-10-04T15:44:46.353Z,695
2022-10-04T15:50:16.866Z,725
2022-10-04T15:55:46.312Z,748
2022-10-04T16:01:16.861Z,752
2022-10-04T16:06:47.709Z,787
2022-10-04T16:12:20.177Z,801
2022-10-04T16:17:47.282Z,837
2022-10-04T16:23:17.774Z,846
2022-10-04T16:28:47.237Z,847
2022-10-04T16:34:17.731Z,870
2022-10-04T16:39:48.217Z,753
2022-10-04T16:45:17.687Z,783
2022-10-04T16:50:48.153Z,755
2022-10-04T16:56:18.743Z,759
2022-10-04T17:01:52.891Z,759
2022-10-04T17:07:18.673Z,756
2022-10-04T17:12:49.220Z,758
2022-10-04T17:18:19.669Z,755
2022-10-04T17:23:50.130Z,752
2022-10-04T17:29:19.649Z,752
2022-10-04T17:34:50.097Z,753
2022-10-04T17:40:20.563Z,741
2022-10-04T17:45:50.316Z,748
2022-10-04T17:51:20.537Z,808
2022-10-04T17:56:51.019Z,839
2022-10-04T18:02:20.690Z,915
2022-10-04T18:07:50.983Z,944
2022-10-04T18:13:21.474Z,929
2022-10-04T18:18:50.985Z,909
2022-10-04T18:24:21.417Z,933
2022-10-04T18:29:51.921Z,991
2022-10-04T18:35:21.408Z,1028
2022-10-04T18:40:51.873Z,961
2022-10-04T18:46:22.386Z,922
2022-10-04T18:51:51.863Z,907
2022-10-04T18:57:22.311Z,895
2022-10-04T19:02:51.798Z,888
2022-10-04T19:08:22.280Z,888
2022-10-04T19:13:52.757Z,888
2022-10-04T19:19:22.255Z,887
2022-10-04T19:24:52.756Z,884
2022-10-04T19:30:23.181Z,893
2022-10-04T19:35:52.657Z,899
2022-10-04T19:41:23.160Z,893
2022-10-04T19:46:53.614Z,892
2022-10-04T19:52:24.220Z,897
2022-10-04T19:57:54.720Z,901
2022-10-04T20:03:25.163Z,896
2022-10-04T20:09:00.796Z,894
2022-10-04T20:14:25.188Z,907
2022-10-04T20:19:55.717Z,912
2022-10-04T20:25:25.218Z,921
2022-10-04T20:30:55.827Z,917
2022-10-04T20:36:26.201Z,917
2022-10-04T20:41:55.699Z,920
2022-10-04T20:47:25.208Z,923
2022-10-04T20:52:55.649Z,926
2022-10-04T20:58:26.143Z,929
2022-10-04T21:03:56.638Z,930
2022-10-04T21:09:26.112Z,933
2022-10-04T21:14:56.577Z,920
2022-10-04T21:20:27.299Z,930
2022-10-04T21:25:57.621Z,924
2022-10-04T21:31:27.233Z,936
2022-10-04T21:36:57.741Z,939
2022-10-04T21:42:28.136Z,937
2022-10-04T21:47:57.604Z,939
2022-10-04T21:53:28.146Z,944
2022-10-04T21:58:58.585Z,947
2022-10-04T22:04:28.049Z,949
2022-10-04T22:09:58.536Z,955
2022-10-04T22:15:28.021Z,952
2022-10-04T22:20:58.505Z,956
2022-10-04T22:26:29.039Z,961
2022-10-04T22:31:58.565Z,966
2022-10-04T22:37:29.131Z,973
2022-10-04T22:42:59.599Z,975
2022-10-04T22:48:29.987Z,973
2022-10-04T22:53:59.468Z,978
2022-10-04T22:59:30.108Z,978
2022-10-04T23:05:00.517Z,978
2022-10-04T23:10:29.895Z,978
2022-10-04T23:16:00.718Z,981
2022-10-04T23:21:30.860Z,985
2022-10-04T23:27:00.352Z,984
2022-10-04T23:32:30.878Z,992
2022-10-04T23:38:01.321Z,988
2022-10-04T23:43:30.812Z,987
2022-10-04T23:49:01.326Z,994
2022-10-04T23:54:31.804Z,997
